Terminal Aerodrome Forecast
Issued by NWS

Home | Current Version | Previous Version | Text Only | Print | Product List | Glossary On
Versions: 1 2 3 4 5 6 7 8 9 10 11 12 13 14 15 16 17 18 19
000
FTUS45 KFGZ 201820 AAA
TAFGCN
TAF AMD
KGCN 201820Z 2018/2118 23007KT P6SM SCT015 OVC022
      TEMPO 2018/2020 BKN015 OVC022
     FM202000 22011KT P6SM SCT018 BKN028
     FM202330 23004KT P6SM SCT030 SCT250
     FM210300 VRB05KT P6SM SCT250
      TEMPO 2108/2112 SCT012=

USA.gov is the U.S. government's official web portal to all federal, state and local government web resources and services.